sensor_id;sensor_type;location;lat;lon;timestamp;pressure;altitude;pressure_sealevel;temperature;humidity
65276;BME280;51875;49.994;14.052;2024-03-25T00:00:25;96950.13;;;5.73;100.00
65276;BME280;51875;49.994;14.052;2024-03-25T00:01:41;96955.94;;;5.81;100.00
65276;BME280;51875;49.994;14.052;2024-03-25T00:02:59;96962.75;;;5.84;100.00
65276;BME280;51875;49.994;14.052;2024-03-25T00:04:17;96953.38;;;5.79;100.00
65276;BME280;51875;49.994;14.052;2024-03-25T00:05:34;96951.06;;;5.97;100.00
65276;BME280;51875;49.994;14.052;2024-03-25T00:06:50;96955.75;;;5.86;100.00
65276;BME280;51875;49.994;14.052;2024-03-25T00:08:09;96960.53;;;5.73;100.00
65276;BME280;51875;49.994;14.052;2024-03-25T00:09:25;96950.91;;;6.03;100.00
65276;BME280;51875;49.994;14.052;2024-03-25T00:10:41;96959.44;;;5.80;100.00
65276;BME280;51875;49.994;14.052;2024-03-25T00:11:57;96963.91;;;5.75;100.00
65276;BME280;51875;49.994;14.052;2024-03-25T00:13:13;96962.91;;;6.06;100.00
65276;BME280;51875;49.994;14.052;2024-03-25T00:14:30;96961.06;;;5.83;100.00
65276;BME280;51875;49.994;14.052;2024-03-25T00:15:46;96960.47;;;5.74;100.00
65276;BME280;51875;49.994;14.052;2024-03-25T00:17:02;96963.00;;;5.76;100.00
65276;BME280;51875;49.994;14.052;2024-03-25T00:18:18;96959.25;;;5.85;100.00
65276;BME280;51875;49.994;14.052;2024-03-25T00:19:34;96970.28;;;5.91;100.00
65276;BME280;51875;49.994;14.052;2024-03-25T00:20:50;96958.81;;;5.72;100.00
65276;BME280;51875;49.994;14.052;2024-03-25T00:22:07;96958.72;;;5.75;100.00
65276;BME280;51875;49.994;14.052;2024-03-25T00:23:23;96962.03;;;5.80;100.00
65276;BME280;51875;49.994;14.052;2024-03-25T00:24:39;96961.59;;;5.65;100.00
65276;BME280;51875;49.994;14.052;2024-03-25T00:25:55;96960.06;;;5.60;100.00
65276;BME280;51875;49.994;14.052;2024-03-25T00:27:11;96960.41;;;5.76;100.00
65276;BME280;51875;49.994;14.052;2024-03-25T00:28:27;96959.72;;;5.71;100.00
65276;BME280;51875;49.994;14.052;2024-03-25T00:29:43;96955.38;;;5.71;100.00
65276;BME280;51875;49.994;14.052;2024-03-25T00:31:00;96958.53;;;5.81;100.00
65276;BME280;51875;49.994;14.052;2024-03-25T00:32:16;96957.56;;;5.84;100.00
65276;BME280;51875;49.994;14.052;2024-03-25T00:33:31;96965.44;;;6.09;100.00
65276;BME280;51875;49.994;14.052;2024-03-25T00:34:48;96962.31;;;5.71;100.00
65276;BME280;51875;49.994;14.052;2024-03-25T00:36:04;96962.44;;;5.68;100.00
65276;BME280;51875;49.994;14.052;2024-03-25T00:37:20;96960.53;;;5.73;100.00
65276;BME280;51875;49.994;14.052;2024-03-25T00:38:37;96962.69;;;5.87;100.00
65276;BME280;51875;49.994;14.052;2024-03-25T00:39:53;96966.06;;;5.89;100.00
65276;BME280;51875;49.994;14.052;2024-03-25T00:41:09;96964.66;;;5.78;100.00
65276;BME280;51875;49.994;14.052;2024-03-25T00:42:25;96959.66;;;5.99;100.00
65276;BME280;51875;49.994;14.052;2024-03-25T00:43:41;96953.81;;;5.92;100.00
65276;BME280;51875;49.994;14.052;2024-03-25T00:44:57;96959.47;;;5.78;100.00
65276;BME280;51875;49.994;14.052;2024-03-25T00:46:13;96954.66;;;5.93;100.00
65276;BME280;51875;49.994;14.052;2024-03-25T00:47:29;96949.50;;;5.91;100.00
65276;BME280;51875;49.994;14.052;2024-03-25T00:48:45;96950.16;;;5.98;100.00
65276;BME280;51875;49.994;14.052;2024-03-25T00:50:01;96953.81;;;6.19;100.00
65276;BME280;51875;49.994;14.052;2024-03-25T00:51:17;96950.94;;;6.00;100.00
65276;BME280;51875;49.994;14.052;2024-03-25T00:52:33;96950.22;;;5.97;100.00
65276;BME280;51875;49.994;14.052;2024-03-25T00:53:49;96947.00;;;5.90;100.00
65276;BME280;51875;49.994;14.052;2024-03-25T00:55:05;96950.91;;;6.03;100.00
65276;BME280;51875;49.994;14.052;2024-03-25T00:56:21;96944.69;;;6.07;100.00
65276;BME280;51875;49.994;14.052;2024-03-25T00:57:37;96947.81;;;5.90;100.00
65276;BME280;51875;49.994;14.052;2024-03-25T00:58:53;96948.72;;;6.16;100.00
65276;BME280;51875;49.994;14.052;2024-03-25T01:00:09;96949.50;;;6.18;100.00
65276;BME280;51875;49.994;14.052;2024-03-25T01:01:25;96958.81;;;5.99;100.00
65276;BME280;51875;49.994;14.052;2024-03-25T01:02:42;96942.84;;;5.84;100.00
65276;BME280;51875;49.994;14.052;2024-03-25T01:03:58;96935.38;;;6.00;100.00
65276;BME280;51875;49.994;14.052;2024-03-25T01:05:14;96929.38;;;5.98;100.00
65276;BME280;51875;49.994;14.052;2024-03-25T01:06:30;96931.84;;;6.03;100.00
65276;BME280;51875;49.994;14.052;2024-03-25T01:07:46;96935.84;;;5.86;100.00
65276;BME280;51875;49.994;14.052;2024-03-25T01:09:03;96942.31;;;6.01;100.00
65276;BME280;51875;49.994;14.052;2024-03-25T01:10:20;96936.53;;;5.91;100.00
65276;BME280;51875;49.994;14.052;2024-03-25T01:11:36;96931.06;;;5.99;100.00
65276;BME280;51875;49.994;14.052;2024-03-25T01:12:52;96938.81;;;6.02;100.00
65276;BME280;51875;49.994;14.052;2024-03-25T01:14:08;96941.78;;;5.90;100.00
65276;BME280;51875;49.994;14.052;2024-03-25T01:15:24;96946.22;;;5.86;100.00
65276;BME280;51875;49.994;14.052;2024-03-25T01:16:40;96931.06;;;5.99;100.00
65276;BME280;51875;49.994;14.052;2024-03-25T01:17:57;96944.38;;;5.90;100.00
65276;BME280;51875;49.994;14.052;2024-03-25T01:19:13;96931.69;;;6.07;100.00
65276;BME280;51875;49.994;14.052;2024-03-25T01:20:29;96939.19;;;6.17;100.00
65276;BME280;51875;49.994;14.052;2024-03-25T01:21:45;96943.38;;;6.21;100.00
65276;BME280;51875;49.994;14.052;2024-03-25T01:23:01;96943.84;;;5.80;100.00
65276;BME280;51875;49.994;14.052;2024-03-25T01:24:17;96945.88;;;5.97;100.00
65276;BME280;51875;49.994;14.052;2024-03-25T01:25:33;96944.25;;;5.94;100.00
65276;BME280;51875;49.994;14.052;2024-03-25T01:26:49;96944.03;;;6.01;100.00
65276;BME280;51875;49.994;14.052;2024-03-25T01:28:05;96946.00;;;5.92;100.00
65276;BME280;51875;49.994;14.052;2024-03-25T01:29:21;96934.66;;;5.70;100.00
65276;BME280;51875;49.994;14.052;2024-03-25T01:30:37;96943.88;;;5.78;100.00
65276;BME280;51875;49.994;14.052;2024-03-25T01:31:55;96940.00;;;5.65;100.00
65276;BME280;51875;49.994;14.052;2024-03-25T01:33:10;96944.16;;;5.96;100.00
65276;BME280;51875;49.994;14.052;2024-03-25T01:34:26;96945.72;;;6.03;100.00
65276;BME280;51875;49.994;14.052;2024-03-25T01:35:42;96944.94;;;6.00;100.00
65276;BME280;51875;49.994;14.052;2024-03-25T01:36:58;96948.19;;;5.79;100.00
65276;BME280;51875;49.994;14.052;2024-03-25T01:38:14;96949.72;;;5.85;100.00
65276;BME280;51875;49.994;14.052;2024-03-25T01:39:30;96959.19;;;6.15;100.00
65276;BME280;51875;49.994;14.052;2024-03-25T01:40:46;96952.19;;;5.90;100.00
65276;BME280;51875;49.994;14.052;2024-03-25T01:42:02;96953.00;;;5.90;100.00
65276;BME280;51875;49.994;14.052;2024-03-25T01:43:18;96951.44;;;6.13;100.00
65276;BME280;51875;49.994;14.052;2024-03-25T01:44:35;96954.03;;;6.13;100.00
65276;BME280;51875;49.994;14.052;2024-03-25T01:45:53;96946.00;;;5.92;100.00
65276;BME280;51875;49.994;14.052;2024-03-25T01:47:09;96942.22;;;6.04;100.00
65276;BME280;51875;49.994;14.052;2024-03-25T01:48:25;96949.03;;;6.07;100.00
65276;BME280;51875;49.994;14.052;2024-03-25T01:49:41;96944.81;;;6.04;100.00
65276;BME280;51875;49.994;14.052;2024-03-25T01:50:58;96948.44;;;5.72;100.00
65276;BME280;51875;49.994;14.052;2024-03-25T01:52:14;96949.50;;;5.91;100.00
65276;BME280;51875;49.994;14.052;2024-03-25T01:53:30;96955.63;;;5.90;100.00
65276;BME280;51875;49.994;14.052;2024-03-25T01:54:47;96960.28;;;6.07;100.00
65276;BME280;51875;49.994;14.052;2024-03-25T01:56:03;96952.81;;;5.97;100.00
65276;BME280;51875;49.994;14.052;2024-03-25T01:57:21;96950.78;;;6.06;100.00
65276;BME280;51875;49.994;14.052;2024-03-25T01:58:37;96955.69;;;5.89;100.00
65276;BME280;51875;49.994;14.052;2024-03-25T01:59:53;96941.25;;;5.80;100.00
65276;BME280;51875;49.994;14.052;2024-03-25T02:01:09;96954.13;;;5.83;100.00
65276;BME280;51875;49.994;14.052;2024-03-25T02:02:30;96953.13;;;5.87;100.00
65276;BME280;51875;49.994;14.052;2024-03-25T02:03:47;96957.13;;;5.71;100.00
65276;BME280;51875;49.994;14.052;2024-03-25T02:05:03;96960.78;;;5.92;100.00
65276;BME280;51875;49.994;14.052;2024-03-25T02:06:21;96955.22;;;5.76;100.00
65276;BME280;51875;49.994;14.052;2024-03-25T02:07:37;96961.72;;;5.89;100.00
65276;BME280;51875;49.994;14.052;2024-03-25T02:08:54;96956.97;;;5.75;100.00
65276;BME280;51875;49.994;14.052;2024-03-25T02:10:11;96960.47;;;5.74;100.00
65276;BME280;51875;49.994;14.052;2024-03-25T02:11:30;96953.66;;;5.70;100.00
65276;BME280;51875;49.994;14.052;2024-03-25T02:12:46;96968.75;;;5.86;100.00
65276;BME280;51875;49.994;14.052;2024-03-25T02:14:03;96961.94;;;5.83;100.00
65276;BME280;51875;49.994;14.052;2024-03-25T02:15:19;96974.59;;;5.65;100.00
65276;BME280;51875;49.994;14.052;2024-03-25T02:16:35;96968.06;;;5.80;100.00
65276;BME280;51875;49.994;14.052;2024-03-25T02:17:51;96958.75;;;6.00;100.00
65276;BME280;51875;49.994;14.052;2024-03-25T02:19:07;96963.00;;;6.04;100.00
65276;BME280;51875;49.994;14.052;2024-03-25T02:20:25;96959.75;;;6.23;100.00
65276;BME280;51875;49.994;14.052;2024-03-25T02:21:41;96964.47;;;6.12;100.00
65276;BME280;51875;49.994;14.052;2024-03-25T02:22:57;96960.47;;;5.74;100.00
65276;BME280;51875;49.994;14.052;2024-03-25T02:24:14;96938.16;;;5.69;100.00
65276;BME280;51875;49.994;14.052;2024-03-25T02:25:32;96959.22;;;5.86;100.00
65276;BME280;51875;49.994;14.052;2024-03-25T02:26:48;96954.78;;;5.90;100.00
65276;BME280;51875;49.994;14.052;2024-03-25T02:28:04;96957.88;;;5.74;100.00
65276;BME280;51875;49.994;14.052;2024-03-25T02:29:20;96972.97;;;5.90;100.00
65276;BME280;51875;49.994;14.052;2024-03-25T02:30:36;96959.66;;;5.72;100.00
65276;BME280;51875;49.994;14.052;2024-03-25T02:31:54;96967.06;;;5.85;100.00
65276;BME280;51875;49.994;14.052;2024-03-25T02:33:10;96968.06;;;5.80;100.00
65276;BME280;51875;49.994;14.052;2024-03-25T02:34:26;96968.84;;;5.83;100.00
65276;BME280;51875;49.994;14.052;2024-03-25T02:35:43;96974.53;;;5.67;100.00
65276;BME280;51875;49.994;14.052;2024-03-25T02:37:00;96970.88;;;5.74;100.00
65276;BME280;51875;49.994;14.052;2024-03-25T02:38:16;96971.41;;;5.84;100.00
65276;BME280;51875;49.994;14.052;2024-03-25T02:39:34;96966.47;;;5.76;100.00
65276;BME280;51875;49.994;14.052;2024-03-25T02:40:50;96962.81;;;5.55;100.00
65276;BME280;51875;49.994;14.052;2024-03-25T02:42:06;96975.72;;;5.85;100.00
65276;BME280;51875;49.994;14.052;2024-03-25T02:43:23;96975.34;;;5.69;100.00
65276;BME280;51875;49.994;14.052;2024-03-25T02:44:39;96981.09;;;5.52;100.00
65276;BME280;51875;49.994;14.052;2024-03-25T02:45:59;96982.69;;;5.56;100.00
65276;BME280;51875;49.994;14.052;2024-03-25T02:47:15;96974.53;;;5.67;100.00
65276;BME280;51875;49.994;14.052;2024-03-25T02:48:31;96983.09;;;5.71;100.00
65276;BME280;51875;49.994;14.052;2024-03-25T02:49:47;96988.22;;;5.72;100.00
65276;BME280;51875;49.994;14.052;2024-03-25T02:51:03;96986.63;;;5.68;100.00
65276;BME280;51875;49.994;14.052;2024-03-25T02:52:19;96984.38;;;5.57;100.00
65276;BME280;51875;49.994;14.052;2024-03-25T02:53:35;96981.22;;;5.47;100.00
65276;BME280;51875;49.994;14.052;2024-03-25T02:54:51;96996.72;;;5.77;100.00
65276;BME280;51875;49.994;14.052;2024-03-25T02:56:07;96988.31;;;5.69;100.00
65276;BME280;51875;49.994;14.052;2024-03-25T02:57:23;96995.81;;;5.51;100.00
65276;BME280;51875;49.994;14.052;2024-03-25T02:58:39;96995.31;;;5.67;100.00
65276;BME280;51875;49.994;14.052;2024-03-25T02:59:55;97000.75;;;5.59;100.00
65276;BME280;51875;49.994;14.052;2024-03-25T03:01:11;97000.41;;;5.70;100.00
65276;BME280;51875;49.994;14.052;2024-03-25T03:02:27;96996.56;;;5.55;100.00
65276;BME280;51875;49.994;14.052;2024-03-25T03:03:44;96997.28;;;5.87;100.00
65276;BME280;51875;49.994;14.052;2024-03-25T03:05:00;96996.72;;;5.77;100.00
65276;BME280;51875;49.994;14.052;2024-03-25T03:06:18;96997.81;;;5.97;100.00
65276;BME280;51875;49.994;14.052;2024-03-25T03:07:34;97000.78;;;5.86;100.00
65276;BME280;51875;49.994;14.052;2024-03-25T03:08:51;96999.50;;;5.71;100.00
65276;BME280;51875;49.994;14.052;2024-03-25T03:10:07;97006.13;;;5.82;100.00
65276;BME280;51875;49.994;14.052;2024-03-25T03:11:23;96999.03;;;5.87;100.00
65276;BME280;51875;49.994;14.052;2024-03-25T03:12:39;97014.81;;;5.80;100.00
65276;BME280;51875;49.994;14.052;2024-03-25T03:13:56;97007.09;;;6.06;100.00
65276;BME280;51875;49.994;14.052;2024-03-25T03:15:12;97009.13;;;5.96;100.00
65276;BME280;51875;49.994;14.052;2024-03-25T03:16:28;97008.31;;;5.94;100.00
65276;BME280;51875;49.994;14.052;2024-03-25T03:17:45;97014.19;;;5.99;100.00
65276;BME280;51875;49.994;14.052;2024-03-25T03:19:01;97013.91;;;6.10;100.00
65276;BME280;51875;49.994;14.052;2024-03-25T03:20:17;97013.06;;;5.81;100.00
65276;BME280;51875;49.994;14.052;2024-03-25T03:21:33;97016.38;;;5.58;100.00
65276;BME280;51875;49.994;14.052;2024-03-25T03:22:50;97016.72;;;5.75;100.00
65276;BME280;51875;49.994;14.052;2024-03-25T03:24:06;97025.88;;;5.86;100.00
65276;BME280;51875;49.994;14.052;2024-03-25T03:25:22;97025.97;;;5.84;100.00
65276;BME280;51875;49.994;14.052;2024-03-25T03:26:38;97020.63;;;5.89;100.00
65276;BME280;51875;49.994;14.052;2024-03-25T03:27:55;97022.84;;;5.73;100.00
65276;BME280;51875;49.994;14.052;2024-03-25T03:29:12;97021.31;;;5.94;100.00
65276;BME280;51875;49.994;14.052;2024-03-25T03:30:28;97021.25;;;5.69;100.00
65276;BME280;51875;49.994;14.052;2024-03-25T03:31:44;97021.66;;;5.83;100.00
65276;BME280;51875;49.994;14.052;2024-03-25T03:33:00;97021.41;;;5.91;100.00
65276;BME280;51875;49.994;14.052;2024-03-25T03:34:16;97013.97;;;5.80;100.00
65276;BME280;51875;49.994;14.052;2024-03-25T03:35:33;97015.91;;;6.02;100.00
65276;BME280;51875;49.994;14.052;2024-03-25T03:36:49;97016.00;;;6.26;100.00
65276;BME280;51875;49.994;14.052;2024-03-25T03:38:06;97017.59;;;6.03;100.00
65276;BME280;51875;49.994;14.052;2024-03-25T03:39:22;97019.31;;;5.75;100.00
65276;BME280;51875;49.994;14.052;2024-03-25T03:40:38;97010.47;;;5.81;100.00
65276;BME280;51875;49.994;14.052;2024-03-25T03:41:54;97025.69;;;5.65;100.00
65276;BME280;51875;49.994;14.052;2024-03-25T03:43:10;97031.59;;;5.97;100.00
65276;BME280;51875;49.994;14.052;2024-03-25T03:44:27;97025.75;;;6.19;100.00
65276;BME280;51875;49.994;14.052;2024-03-25T03:45:43;97023.81;;;5.97;100.00
65276;BME280;51875;49.994;14.052;2024-03-25T03:47:00;97036.69;;;5.73;100.00
65276;BME280;51875;49.994;14.052;2024-03-25T03:48:16;97025.16;;;5.82;100.00
65276;BME280;51875;49.994;14.052;2024-03-25T03:49:32;97035.19;;;5.93;100.00
65276;BME280;51875;49.994;14.052;2024-03-25T03:50:48;97021.91;;;5.75;100.00
65276;BME280;51875;49.994;14.052;2024-03-25T03:52:05;97031.94;;;5.58;100.00
65276;BME280;51875;49.994;14.052;2024-03-25T03:53:21;97027.19;;;5.72;100.00
65276;BME280;51875;49.994;14.052;2024-03-25T03:54:37;97035.09;;;5.39;100.00
65276;BME280;51875;49.994;14.052;2024-03-25T03:56:02;97032.19;;;5.50;100.00
65276;BME280;51875;49.994;14.052;2024-03-25T03:57:20;97039.97;;;5.50;100.00
65276;BME280;51875;49.994;14.052;2024-03-25T03:58:36;97041.38;;;5.62;100.00
65276;BME280;51875;49.994;14.052;2024-03-25T03:59:52;97040.56;;;5.60;100.00
65276;BME280;51875;49.994;14.052;2024-03-25T04:01:20;97040.88;;;5.49;100.00
65276;BME280;51875;49.994;14.052;2024-03-25T04:02:42;97044.19;;;5.54;100.00
65276;BME280;51875;49.994;14.052;2024-03-25T04:03:59;97045.72;;;5.01;100.00
65276;BME280;51875;49.994;14.052;2024-03-25T04:05:15;97048.44;;;4.97;100.00
65276;BME280;51875;49.994;14.052;2024-03-25T04:06:31;97053.50;;;5.31;100.00
65276;BME280;51875;49.994;14.052;2024-03-25T04:07:47;97049.91;;;5.05;100.00
65276;BME280;51875;49.994;14.052;2024-03-25T04:09:03;97056.56;;;5.44;100.00
65276;BME280;51875;49.994;14.052;2024-03-25T04:10:20;97055.66;;;5.17;100.00
65276;BME280;51875;49.994;14.052;2024-03-25T04:11:36;97064.31;;;5.17;100.00
65276;BME280;51875;49.994;14.052;2024-03-25T04:12:52;97067.50;;;5.26;100.00
65276;BME280;51875;49.994;14.052;2024-03-25T04:14:09;97064.25;;;5.19;100.00
65276;BME280;51875;49.994;14.052;2024-03-25T04:15:26;97075.84;;;5.37;100.00
65276;BME280;51875;49.994;14.052;2024-03-25T04:16:42;97068.03;;;5.07;100.00
65276;BME280;51875;49.994;14.052;2024-03-25T04:17:58;97079.56;;;5.28;100.00
65276;BME280;51875;49.994;14.052;2024-03-25T04:19:15;97073.00;;;5.15;100.00
65276;BME280;51875;49.994;14.052;2024-03-25T04:20:41;97077.53;;;5.38;100.00
65276;BME280;51875;49.994;14.052;2024-03-25T04:21:57;97074.94;;;5.38;100.00
65276;BME280;51875;49.994;14.052;2024-03-25T04:23:14;97065.16;;;5.16;100.00
65276;BME280;51875;49.994;14.052;2024-03-25T04:24:30;97079.88;;;5.17;100.00
65276;BME280;51875;49.994;14.052;2024-03-25T04:25:46;97081.56;;;5.18;100.00
65276;BME280;51875;49.994;14.052;2024-03-25T04:27:02;97085.56;;;5.29;100.00
65276;BME280;51875;49.994;14.052;2024-03-25T04:28:19;97081.28;;;5.28;100.00
65276;BME280;51875;49.994;14.052;2024-03-25T04:29:36;97080.00;;;5.13;100.00
65276;BME280;51875;49.994;14.052;2024-03-25T04:30:53;97088.91;;;5.02;100.00
65276;BME280;51875;49.994;14.052;2024-03-25T04:32:09;97088.66;;;5.12;100.00
65276;BME280;51875;49.994;14.052;2024-03-25T04:33:25;97095.72;;;5.06;100.00
65276;BME280;51875;49.994;14.052;2024-03-25T04:34:42;97091.38;;;5.07;100.00
65276;BME280;51875;49.994;14.052;2024-03-25T04:35:58;97093.09;;;4.75;100.00
65276;BME280;51875;49.994;14.052;2024-03-25T04:37:14;97086.97;;;4.77;100.00
65276;BME280;51875;49.994;14.052;2024-03-25T04:38:31;97090.66;;;4.69;100.00
65276;BME280;51875;49.994;14.052;2024-03-25T04:39:47;97098.47;;;4.67;100.00
65276;BME280;51875;49.994;14.052;2024-03-25T04:41:04;97095.69;;;4.75;100.00
65276;BME280;51875;49.994;14.052;2024-03-25T04:42:21;97095.56;;;4.79;100.00
65276;BME280;51875;49.994;14.052;2024-03-25T04:43:37;97105.72;;;4.87;100.00
65276;BME280;51875;49.994;14.052;2024-03-25T04:44:54;97099.66;;;4.88;100.00
65276;BME280;51875;49.994;14.052;2024-03-25T04:46:10;97102.22;;;4.90;100.00
65276;BME280;51875;49.994;14.052;2024-03-25T04:47:26;97093.91;;;4.77;100.00
65276;BME280;51875;49.994;14.052;2024-03-25T04:48:42;97094.59;;;4.84;100.00
65276;BME280;51875;49.994;14.052;2024-03-25T04:50:00;97087.41;;;4.60;100.00
65276;BME280;51875;49.994;14.052;2024-03-25T04:51:16;97090.47;;;4.76;100.00
65276;BME280;51875;49.994;14.052;2024-03-25T04:52:32;97089.84;;;5.00;100.00
65276;BME280;51875;49.994;14.052;2024-03-25T04:53:48;97093.25;;;5.02;100.00
65276;BME280;51875;49.994;14.052;2024-03-25T04:55:05;97097.41;;;5.07;100.00
65276;BME280;51875;49.994;14.052;2024-03-25T04:56:21;97100.50;;;4.89;100.00
65276;BME280;51875;49.994;14.052;2024-03-25T04:57:37;97094.97;;;4.70;100.00
65276;BME280;51875;49.994;14.052;2024-03-25T04:58:53;97104.38;;;5.05;100.00
65276;BME280;51875;49.994;14.052;2024-03-25T05:00:10;97102.25;;;4.88;100.00
65276;BME280;51875;49.994;14.052;2024-03-25T05:01:30;97106.00;;;5.09;100.00
65276;BME280;51875;49.994;14.052;2024-03-25T05:02:47;97097.69;;;4.98;100.00
65276;BME280;51875;49.994;14.052;2024-03-25T05:04:03;97106.38;;;4.95;100.00
65276;BME280;51875;49.994;14.052;2024-03-25T05:05:20;97105.25;;;5.06;100.00
65276;BME280;51875;49.994;14.052;2024-03-25T05:06:36;97106.81;;;4.78;100.00
65276;BME280;51875;49.994;14.052;2024-03-25T05:07:52;97118.78;;;5.17;100.00
65276;BME280;51875;49.994;14.052;2024-03-25T05:09:08;97110.91;;;4.87;100.00
65276;BME280;51875;49.994;14.052;2024-03-25T05:10:24;97111.75;;;4.89;100.00
65276;BME280;51875;49.994;14.052;2024-03-25T05:11:41;97119.13;;;5.05;100.00
65276;BME280;51875;49.994;14.052;2024-03-25T05:12:57;97114.53;;;4.81;100.00
65276;BME280;51875;49.994;14.052;2024-03-25T05:14:13;97124.44;;;4.99;100.00
65276;BME280;51875;49.994;14.052;2024-03-25T05:15:29;97130.97;;;5.14;100.00
65276;BME280;51875;49.994;14.052;2024-03-25T05:16:45;97123.66;;;4.97;100.00
65276;BME280;51875;49.994;14.052;2024-03-25T05:18:02;97116.03;;;4.90;100.00
65276;BME280;51875;49.994;14.052;2024-03-25T05:19:18;97127.47;;;4.83;100.00
65276;BME280;51875;49.994;14.052;2024-03-25T05:20:34;97136.50;;;5.01;100.00
65276;BME280;51875;49.994;14.052;2024-03-25T05:21:50;97138.16;;;5.04;100.00
65276;BME280;51875;49.994;14.052;2024-03-25T05:23:07;97139.78;;;5.08;100.00
65276;BME280;51875;49.994;14.052;2024-03-25T05:24:23;97135.22;;;5.16;100.00
65276;BME280;51875;49.994;14.052;2024-03-25T05:25:39;97139.41;;;4.89;100.00
65276;BME280;51875;49.994;14.052;2024-03-25T05:26:56;97135.09;;;5.21;100.00
65276;BME280;51875;49.994;14.052;2024-03-25T05:28:12;97140.63;;;5.40;100.00
65276;BME280;51875;49.994;14.052;2024-03-25T05:29:29;97139.53;;;5.17;100.00
65276;BME280;51875;49.994;14.052;2024-03-25T05:30:45;97141.88;;;5.27;100.00
65276;BME280;51875;49.994;14.052;2024-03-25T05:32:02;97135.38;;;5.12;100.00
65276;BME280;51875;49.994;14.052;2024-03-25T05:33:18;97141.06;;;5.25;100.00
65276;BME280;51875;49.994;14.052;2024-03-25T05:34:34;97138.00;;;5.10;100.00
65276;BME280;51875;49.994;14.052;2024-03-25T05:35:52;97140.59;;;5.42;100.00
65276;BME280;51875;49.994;14.052;2024-03-25T05:37:08;97144.91;;;5.09;100.00
65276;BME280;51875;49.994;14.052;2024-03-25T05:38:24;97150.63;;;5.22;100.00
65276;BME280;51875;49.994;14.052;2024-03-25T05:39:41;97139.09;;;5.01;100.00
65276;BME280;51875;49.994;14.052;2024-03-25T05:40:57;97139.53;;;5.17;100.00
65276;BME280;51875;49.994;14.052;2024-03-25T05:42:13;97154.69;;;5.33;100.00
65276;BME280;51875;49.994;14.052;2024-03-25T05:43:29;97150.50;;;5.27;100.00
65276;BME280;51875;49.994;14.052;2024-03-25T05:44:46;97159.13;;;5.28;100.00
65276;BME280;51875;49.994;14.052;2024-03-25T05:46:02;97158.31;;;5.26;100.00
65276;BME280;51875;49.994;14.052;2024-03-25T05:47:18;97160.63;;;5.36;100.00
65276;BME280;51875;49.994;14.052;2024-03-25T05:48:35;97168.16;;;5.46;100.00
65276;BME280;51875;49.994;14.052;2024-03-25T05:49:51;97163.91;;;5.43;100.00
65276;BME280;51875;49.994;14.052;2024-03-25T05:51:08;97160.97;;;5.56;100.00
65276;BME280;51875;49.994;14.052;2024-03-25T05:52:28;97166.78;;;5.34;100.00
65276;BME280;51875;49.994;14.052;2024-03-25T05:53:44;97161.47;;;5.37;100.00
65276;BME280;51875;49.994;14.052;2024-03-25T05:55:01;97158.88;;;5.37;100.00
65276;BME280;51875;49.994;14.052;2024-03-25T05:56:17;97166.94;;;5.58;100.00
65276;BME280;51875;49.994;14.052;2024-03-25T05:57:33;97168.84;;;5.53;100.00
65276;BME280;51875;49.994;14.052;2024-03-25T05:58:49;97172.13;;;5.59;100.00
65276;BME280;51875;49.994;14.052;2024-03-25T06:00:06;97169.63;;;5.56;100.00
65276;BME280;51875;49.994;14.052;2024-03-25T06:01:24;97167.91;;;5.55;100.00
65276;BME280;51875;49.994;14.052;2024-03-25T06:02:40;97179.53;;;5.73;100.00
65276;BME280;51875;49.994;14.052;2024-03-25T06:03:56;97178.75;;;5.70;100.00
65276;BME280;51875;49.994;14.052;2024-03-25T06:05:12;97188.19;;;5.72;100.00
65276;BME280;51875;49.994;14.052;2024-03-25T06:06:29;97191.50;;;5.77;100.00
65276;BME280;51875;49.994;14.052;2024-03-25T06:07:45;97181.94;;;5.79;100.00
65276;BME280;51875;49.994;14.052;2024-03-25T06:09:01;97183.88;;;5.71;100.00
65276;BME280;51875;49.994;14.052;2024-03-25T06:10:18;97186.06;;;5.87;100.00
65276;BME280;51875;49.994;14.052;2024-03-25T06:11:34;97187.38;;;5.70;100.00
65276;BME280;51875;49.994;14.052;2024-03-25T06:12:50;97202.50;;;5.86;100.00
65276;BME280;51875;49.994;14.052;2024-03-25T06:14:06;97196.13;;;5.98;100.00
65276;BME280;51875;49.994;14.052;2024-03-25T06:15:23;97191.78;;;5.98;100.00
65276;BME280;51875;49.994;14.052;2024-03-25T06:16:39;97202.22;;;5.67;100.00
65276;BME280;51875;49.994;14.052;2024-03-25T06:17:55;97205.72;;;5.96;100.00
65276;BME280;51875;49.994;14.052;2024-03-25T06:19:11;97205.00;;;6.20;100.00
65276;BME280;51875;49.994;14.052;2024-03-25T06:20:28;97204.72;;;6.01;100.00
65276;BME280;51875;49.994;14.052;2024-03-25T06:21:44;97206.19;;;6.10;100.00
65276;BME280;51875;49.994;14.052;2024-03-25T06:23:01;97216.66;;;6.07;100.00
65276;BME280;51875;49.994;14.052;2024-03-25T06:24:17;97212.41;;;6.04;100.00
65276;BME280;51875;49.994;14.052;2024-03-25T06:25:33;97207.34;;;5.98;100.00
65276;BME280;51875;49.994;14.052;2024-03-25T06:26:51;97208.31;;;6.26;100.00
65276;BME280;51875;49.994;14.052;2024-03-25T06:28:07;97216.03;;;6.29;100.00
65276;BME280;51875;49.994;14.052;2024-03-25T06:29:24;97216.53;;;6.12;100.00
65276;BME280;51875;49.994;14.052;2024-03-25T06:30:40;97221.09;;;6.33;100.00
65276;BME280;51875;49.994;14.052;2024-03-25T06:32:15;97218.09;;;5.86;100.00
65276;BME280;51875;49.994;14.052;2024-03-25T06:33:50;97221.56;;;6.18;100.00
65276;BME280;51875;49.994;14.052;2024-03-25T06:35:25;97218.53;;;6.02;100.00
65276;BME280;51875;49.994;14.052;2024-03-25T06:36:41;97222.88;;;6.31;100.00
65276;BME280;51875;49.994;14.052;2024-03-25T06:37:57;97226.53;;;6.26;100.00
65276;BME280;51875;49.994;14.052;2024-03-25T06:39:14;97225.50;;;6.31;100.00
65276;BME280;51875;49.994;14.052;2024-03-25T06:40:33;97221.66;;;6.15;100.00